createdAt,value
2019-01-31T00:00:30.627Z,95570.61
2019-01-31T00:04:19.319Z,95575.63
2019-01-31T00:08:45.927Z,95572.06
2019-01-31T00:11:58.272Z,95574.59
2019-01-31T00:15:20.383Z,95564.31
2019-01-31T00:18:55.718Z,95578.23
2019-01-31T00:23:00.984Z,95575.22
2019-01-31T00:27:00.435Z,95574.66
2019-01-31T00:30:17.370Z,95576.52
2019-01-31T00:34:04.331Z,95575.61
2019-01-31T00:37:49.179Z,95573.50
2019-01-31T00:41:36.619Z,95570.55
2019-01-31T00:45:06.224Z,95574.81
2019-01-31T00:48:53.697Z,95568.22
2019-01-31T00:52:54.495Z,95567.13
2019-01-31T00:56:53.703Z,95567.67
2019-01-31T01:00:25.480Z,95579.37
2019-01-31T01:04:31.432Z,95585.81
2019-01-31T01:08:29.470Z,95582.14
2019-01-31T01:11:58.557Z,95580.20
2019-01-31T01:15:20.874Z,95585.87
2019-01-31T01:19:07.985Z,95580.45
2019-01-31T01:22:32.623Z,95576.09
2019-01-31T01:26:08.093Z,95582.16
2019-01-31T01:29:53.864Z,95583.59
2019-01-31T01:33:18.409Z,95579.27
2019-01-31T01:36:41.710Z,95575.97
2019-01-31T01:40:31.037Z,95579.59
2019-01-31T01:44:00.174Z,95584.44
2019-01-31T01:47:32.214Z,95584.95
2019-01-31T01:51:08.957Z,95595.23
2019-01-31T01:54:54.593Z,95589.92
2019-01-31T01:58:22.214Z,95588.63
2019-01-31T02:02:17.271Z,95594.13
2019-01-31T02:06:00.592Z,95590.59
2019-01-31T02:09:34.800Z,95600.73
2019-01-31T02:13:09.612Z,95609.94
2019-01-31T02:16:45.702Z,95617.34
2019-01-31T02:20:23.893Z,95616.48
2019-01-31T02:24:02.894Z,95617.78
2019-01-31T02:27:24.557Z,95617.14
2019-01-31T02:30:55.129Z,95616.91
2019-01-31T02:34:25.493Z,95627.82
2019-01-31T02:38:08.147Z,95630.66
2019-01-31T02:41:52.915Z,95617.20
2019-01-31T02:45:52.110Z,95624.16
2019-01-31T02:49:36.665Z,95620.66
2019-01-31T02:53:29.893Z,95621.56
2019-01-31T02:57:19.891Z,95616.64
2019-01-31T03:01:04.211Z,95613.34
2019-01-31T03:04:48.540Z,95610.45
2019-01-31T03:08:38.617Z,95607.09
2019-01-31T03:12:14.266Z,95614.25
2019-01-31T03:15:52.997Z,95605.68
2019-01-31T03:19:42.494Z,95603.22
2019-01-31T03:23:26.837Z,95607.62
2019-01-31T03:27:23.348Z,95599.56
2019-01-31T03:31:05.492Z,95596.20
2019-01-31T03:34:44.270Z,95587.03
2019-01-31T03:38:30.469Z,95588.45
2019-01-31T03:41:52.049Z,95604.39
2019-01-31T03:45:16.286Z,95606.42
2019-01-31T03:48:41.975Z,95604.19
2019-01-31T03:52:23.366Z,95616.24
2019-01-31T03:56:07.082Z,95621.55
2019-01-31T03:59:21.158Z,95622.36
2019-01-31T04:02:38.365Z,95620.36
2019-01-31T04:06:01.891Z,95616.27
2019-01-31T04:09:10.653Z,95616.75
2019-01-31T04:12:17.695Z,95614.84
2019-01-31T04:15:24.184Z,95620.39
2019-01-31T04:18:31.142Z,95624.58
2019-01-31T04:21:38.763Z,95622.95
2019-01-31T04:24:45.788Z,95626.11
2019-01-31T04:27:52.326Z,95627.44
2019-01-31T04:30:58.863Z,95629.95
2019-01-31T04:34:06.563Z,95629.08
2019-01-31T04:37:13.272Z,95632.06
2019-01-31T04:40:31.132Z,95632.78
2019-01-31T04:43:28.579Z,95634.30
2019-01-31T04:46:36.175Z,95637.80
2019-01-31T04:49:42.905Z,95638.30
2019-01-31T04:52:49.534Z,95641.56
2019-01-31T04:55:56.441Z,95633.25
2019-01-31T04:59:03.256Z,95644.92
2019-01-31T05:02:09.588Z,95639.88
2019-01-31T05:05:16.174Z,95642.56
2019-01-31T05:08:22.771Z,95637.80
2019-01-31T05:11:30.291Z,95638.17
2019-01-31T05:14:36.810Z,95642.39
2019-01-31T05:17:43.135Z,95647.47
2019-01-31T05:20:49.889Z,95646.42
2019-01-31T05:23:56.180Z,95640.95
2019-01-31T05:27:04.480Z,95654.17
2019-01-31T05:30:12.197Z,95650.63
2019-01-31T05:33:19.069Z,95650.57
2019-01-31T05:36:25.804Z,95655.28
2019-01-31T05:39:32.684Z,95654.54
2019-01-31T05:42:39.245Z,95652.84
2019-01-31T05:45:45.910Z,95657.59
2019-01-31T05:48:52.441Z,95656.91
2019-01-31T05:51:59.920Z,95653.16
2019-01-31T05:55:07.036Z,95653.02
2019-01-31T05:58:13.958Z,95660.16
2019-01-31T06:01:20.935Z,95655.61
2019-01-31T06:04:27.336Z,95661.08
2019-01-31T06:07:34.116Z,95667.53
2019-01-31T06:10:40.309Z,95672.84
2019-01-31T06:13:47.065Z,95676.64
2019-01-31T06:16:53.544Z,95683.30
2019-01-31T06:20:00.098Z,95682.96
2019-01-31T06:23:07.202Z,95679.17
2019-01-31T06:26:14.239Z,95685.14
2019-01-31T06:29:21.026Z,95675.82
2019-01-31T06:32:28.021Z,95681.27
2019-01-31T06:35:34.632Z,95682.41
2019-01-31T06:38:41.542Z,95688.72
2019-01-31T06:41:49.093Z,95693.03
2019-01-31T06:44:56.913Z,95692.90
2019-01-31T06:48:05.185Z,95697.73
2019-01-31T06:51:12.232Z,95698.48
2019-01-31T06:54:18.636Z,95695.53
2019-01-31T06:57:25.097Z,95702.05
2019-01-31T07:00:31.806Z,95699.67
2019-01-31T07:03:38.301Z,95697.67
2019-01-31T07:06:45.062Z,95701.02
2019-01-31T07:09:51.428Z,95693.36
2019-01-31T07:12:57.985Z,95706.06
2019-01-31T07:16:05.405Z,95700.72
2019-01-31T07:19:11.891Z,95697.73
2019-01-31T07:22:18.715Z,95701.89
2019-01-31T07:25:26.406Z,95696.47
2019-01-31T07:28:50.860Z,95699.94
2019-01-31T07:31:57.584Z,95701.38
2019-01-31T07:35:04.845Z,95699.36
2019-01-31T07:38:11.228Z,95705.11
2019-01-31T07:41:18.319Z,95712.37
2019-01-31T07:44:25.104Z,95711.53
2019-01-31T07:47:32.080Z,95713.47
2019-01-31T07:50:39.201Z,95715.13
2019-01-31T07:53:46.162Z,95713.95
2019-01-31T07:56:52.702Z,95718.89
2019-01-31T07:59:59.264Z,95721.02
2019-01-31T08:03:06.904Z,95717.08
2019-01-31T08:06:13.799Z,95718.94
2019-01-31T08:09:20.351Z,95719.00
2019-01-31T08:12:27.431Z,95725.81
2019-01-31T08:15:33.936Z,95723.68
2019-01-31T08:18:40.309Z,95717.35
2019-01-31T08:21:47.840Z,95724.88
2019-01-31T08:24:54.544Z,95727.60
2019-01-31T08:28:01.807Z,95736.91
2019-01-31T08:31:08.380Z,95727.05
2019-01-31T08:34:15.290Z,95736.58
2019-01-31T08:37:24.669Z,95737.92
2019-01-31T08:40:31.790Z,95729.30
2019-01-31T08:43:38.513Z,95730.23
2019-01-31T08:46:45.021Z,95731.47
2019-01-31T08:49:51.922Z,95733.91
2019-01-31T08:52:58.970Z,95727.31
2019-01-31T08:56:05.792Z,95734.31
2019-01-31T08:59:12.119Z,95720.17
2019-01-31T09:02:18.953Z,95717.37
2019-01-31T09:05:25.543Z,95719.81
2019-01-31T09:08:32.643Z,95716.52
2019-01-31T09:11:39.315Z,95724.19
2019-01-31T09:14:46.103Z,95720.66
2019-01-31T09:17:52.482Z,95727.30
2019-01-31T09:21:28.732Z,95727.44
2019-01-31T09:25:18.586Z,95731.53
2019-01-31T09:29:07.465Z,95728.74
2019-01-31T09:32:49.577Z,95732.18
2019-01-31T09:36:43.159Z,95730.44
2019-01-31T09:40:21.075Z,95730.40
2019-01-31T09:43:53.110Z,95730.41
2019-01-31T09:47:44.367Z,95731.72
2019-01-31T09:51:17.028Z,95729.41
2019-01-31T09:54:41.888Z,95735.84
2019-01-31T09:58:23.531Z,95737.77
2019-01-31T10:02:02.424Z,95737.78
2019-01-31T10:06:05.279Z,95737.30
2019-01-31T10:09:46.042Z,95735.44
2019-01-31T10:13:54.757Z,95738.55
2019-01-31T10:17:33.991Z,95730.27
2019-01-31T10:21:01.010Z,95737.62
2019-01-31T10:24:59.419Z,95734.16
2019-01-31T10:28:42.396Z,95724.05
2019-01-31T10:32:31.016Z,95725.25
2019-01-31T10:36:00.492Z,95715.53
2019-01-31T10:39:35.482Z,95714.36
2019-01-31T10:42:52.978Z,95711.86
2019-01-31T10:46:06.748Z,95708.88
2019-01-31T10:50:12.255Z,95706.97
2019-01-31T10:53:50.492Z,95690.95
2019-01-31T10:57:26.436Z,95692.28
2019-01-31T11:01:05.459Z,95690.84
2019-01-31T11:04:48.550Z,95692.26
2019-01-31T11:09:08.048Z,95680.39
2019-01-31T11:13:00.218Z,95684.08
2019-01-31T11:16:48.656Z,95676.36
2019-01-31T11:20:17.177Z,95683.38
2019-01-31T11:23:55.108Z,95682.16
2019-01-31T11:28:08.167Z,95677.77
2019-01-31T11:31:56.075Z,95674.83
2019-01-31T11:35:39.007Z,95678.63
2019-01-31T11:39:20.639Z,95668.77
2019-01-31T11:43:26.632Z,95666.49
2019-01-31T11:47:04.396Z,95659.98
2019-01-31T11:50:43.872Z,95656.76
2019-01-31T11:54:43.888Z,95651.55
2019-01-31T11:58:23.112Z,95643.81
2019-01-31T12:01:29.790Z,95646.80
2019-01-31T12:04:36.482Z,95633.50
2019-01-31T12:07:43.182Z,95637.28
2019-01-31T12:10:49.588Z,95631.95
2019-01-31T12:13:56.270Z,95632.56
2019-01-31T12:17:02.799Z,95623.54
2019-01-31T12:20:13.516Z,95625.30
2019-01-31T12:23:20.463Z,95628.03
2019-01-31T12:26:26.811Z,95632.53
2019-01-31T12:29:33.465Z,95628.63
2019-01-31T12:32:39.893Z,95626.72
2019-01-31T12:35:47.315Z,95619.23
2019-01-31T12:38:54.956Z,95624.97
2019-01-31T12:42:01.591Z,95629.94
2019-01-31T12:45:10.622Z,95623.05
2019-01-31T12:48:18.200Z,95625.67
2019-01-31T12:51:24.757Z,95622.70
2019-01-31T12:54:31.157Z,95620.09
2019-01-31T12:57:37.718Z,95618.67
2019-01-31T13:00:44.472Z,95618.66
2019-01-31T13:03:50.985Z,95612.38
2019-01-31T13:06:59.383Z,95608.34
2019-01-31T13:10:06.173Z,95599.78
2019-01-31T13:13:12.908Z,95594.69
2019-01-31T13:16:19.439Z,95595.52
2019-01-31T13:19:25.966Z,95593.52
2019-01-31T13:22:32.956Z,95594.92
2019-01-31T13:25:39.545Z,95584.38
2019-01-31T13:28:46.739Z,95585.88
2019-01-31T13:31:53.564Z,95585.77
2019-01-31T13:35:00.223Z,95588.61
2019-01-31T13:38:07.339Z,95583.14
2019-01-31T13:41:14.269Z,95584.22
2019-01-31T13:44:21.252Z,95581.52
2019-01-31T13:47:27.863Z,95584.67
2019-01-31T13:50:34.803Z,95581.98
2019-01-31T13:53:41.430Z,95578.16
2019-01-31T13:56:48.175Z,95586.69
2019-01-31T13:59:55.012Z,95584.69
2019-01-31T14:03:01.506Z,95587.97
2019-01-31T14:06:09.101Z,95593.33
2019-01-31T14:09:16.187Z,95595.95
2019-01-31T14:12:23.405Z,95591.09
2019-01-31T14:15:33.904Z,95602.05
2019-01-31T14:18:40.094Z,95601.33
2019-01-31T14:21:50.672Z,95594.20
2019-01-31T14:24:58.788Z,95594.55
2019-01-31T14:28:05.979Z,95602.03
2019-01-31T14:31:12.916Z,95611.07
2019-01-31T14:34:19.601Z,95607.22
2019-01-31T14:37:26.066Z,95603.32
2019-01-31T14:40:33.141Z,95612.79
2019-01-31T14:43:39.498Z,95603.09
2019-01-31T14:46:46.391Z,95607.28
2019-01-31T14:49:53.624Z,95603.62
2019-01-31T14:53:02.570Z,95607.38
2019-01-31T14:56:09.848Z,95601.61
2019-01-31T14:59:17.219Z,95607.65
2019-01-31T15:02:24.630Z,95598.03
2019-01-31T15:05:33.098Z,95597.08
2019-01-31T15:08:40.691Z,95604.58
2019-01-31T15:11:49.005Z,95600.78
2019-01-31T15:14:55.805Z,95598.91
2019-01-31T15:18:02.467Z,95606.11
2019-01-31T15:21:09.671Z,95599.52
2019-01-31T15:24:16.811Z,95598.61
2019-01-31T15:27:23.420Z,95597.61
2019-01-31T15:30:31.965Z,95604.83
2019-01-31T15:33:38.130Z,95595.95
2019-01-31T15:36:44.672Z,95599.67
2019-01-31T15:39:52.188Z,95600.88
2019-01-31T15:42:59.010Z,95605.23
2019-01-31T15:46:08.875Z,95602.28
2019-01-31T15:49:15.703Z,95601.39
2019-01-31T15:52:22.292Z,95598.40
2019-01-31T15:55:29.125Z,95606.30
2019-01-31T15:58:35.904Z,95606.13
2019-01-31T16:01:43.150Z,95606.61
2019-01-31T16:04:49.836Z,95605.36
2019-01-31T16:07:56.730Z,95599.41
2019-01-31T16:11:03.225Z,95596.57
2019-01-31T16:14:09.591Z,95597.21
2019-01-31T16:17:18.601Z,95597.92
2019-01-31T16:20:25.396Z,95590.66
2019-01-31T16:23:32.459Z,95592.33
2019-01-31T16:26:39.334Z,95584.32
2019-01-31T16:29:47.997Z,95590.06
2019-01-31T16:32:54.737Z,95583.20
2019-01-31T16:36:01.237Z,95581.10
2019-01-31T16:39:09.915Z,95577.87
2019-01-31T16:42:17.257Z,95580.21
2019-01-31T16:45:23.844Z,95578.61
2019-01-31T16:48:30.458Z,95584.68
2019-01-31T16:51:40.167Z,95582.28
2019-01-31T16:54:46.891Z,95587.98
2019-01-31T16:57:54.203Z,95591.73
2019-01-31T17:01:01.189Z,95587.13
2019-01-31T17:04:08.113Z,95592.16
2019-01-31T17:07:14.854Z,95596.16
2019-01-31T17:10:21.981Z,95594.42
2019-01-31T17:13:29.541Z,95587.19
2019-01-31T17:16:36.745Z,95582.66
2019-01-31T17:19:44.319Z,95587.92
2019-01-31T17:22:51.181Z,95595.24
2019-01-31T17:25:58.531Z,95588.84
2019-01-31T17:29:05.200Z,95589.49
2019-01-31T17:32:11.821Z,95591.25
2019-01-31T17:35:18.547Z,95589.84
2019-01-31T17:38:25.316Z,95593.44
2019-01-31T17:41:32.720Z,95583.72
2019-01-31T17:44:39.421Z,95584.19
2019-01-31T17:47:46.230Z,95582.54
2019-01-31T17:50:53.060Z,95584.48
2019-01-31T17:54:01.660Z,95581.17
2019-01-31T17:57:08.570Z,95572.00
2019-01-31T18:00:46.583Z,95576.35
2019-01-31T18:03:53.275Z,95568.76
2019-01-31T18:07:00.453Z,95573.00
2019-01-31T18:10:10.972Z,95571.92
2019-01-31T18:13:21.218Z,95570.98
2019-01-31T18:16:27.726Z,95568.68
2019-01-31T18:19:34.301Z,95564.97
2019-01-31T18:22:41.286Z,95569.50
2019-01-31T18:25:47.837Z,95565.72
2019-01-31T18:28:54.394Z,95563.42
2019-01-31T18:32:01.369Z,95558.59
2019-01-31T18:35:09.460Z,95553.48
2019-01-31T18:38:15.863Z,95555.99
2019-01-31T18:41:22.856Z,95559.52
2019-01-31T18:44:29.849Z,95559.31
2019-01-31T18:47:36.533Z,95553.05
2019-01-31T18:50:44.370Z,95553.59
2019-01-31T18:53:53.281Z,95551.18
2019-01-31T18:57:00.613Z,95552.11
2019-01-31T19:00:14.142Z,95549.05
2019-01-31T19:03:20.986Z,95548.76
2019-01-31T19:06:28.132Z,95551.91
2019-01-31T19:09:35.009Z,95544.22
2019-01-31T19:12:42.387Z,95553.86
2019-01-31T19:15:49.033Z,95556.27
2019-01-31T19:18:55.637Z,95549.51
2019-01-31T19:22:02.572Z,95547.03
2019-01-31T19:25:09.429Z,95548.76
2019-01-31T19:28:16.374Z,95543.50
2019-01-31T19:31:23.079Z,95534.69
2019-01-31T19:34:31.362Z,95541.45
2019-01-31T19:37:38.516Z,95542.57
2019-01-31T19:40:47.850Z,95533.77
2019-01-31T19:43:54.882Z,95533.67
2019-01-31T19:47:01.652Z,95522.92
2019-01-31T19:50:09.018Z,95520.57
2019-01-31T19:53:16.179Z,95515.08
2019-01-31T19:56:24.441Z,95513.59
2019-01-31T19:59:32.580Z,95510.59
2019-01-31T20:02:39.975Z,95516.73
2019-01-31T20:05:52.441Z,95510.28
2019-01-31T20:08:59.052Z,95507.34
2019-01-31T20:12:05.981Z,95508.80
2019-01-31T20:15:13.774Z,95502.72
2019-01-31T20:18:22.941Z,95503.11
2019-01-31T20:21:29.388Z,95497.83
2019-01-31T20:24:36.594Z,95491.23
2019-01-31T20:27:45.759Z,95490.89
2019-01-31T20:30:52.773Z,95491.85
2019-01-31T20:34:02.054Z,95493.89
2019-01-31T20:37:11.332Z,95493.95
2019-01-31T20:40:23.616Z,95493.48
2019-01-31T20:43:30.609Z,95488.44
2019-01-31T20:46:40.184Z,95481.53
2019-01-31T20:49:46.203Z,95483.92
2019-01-31T20:52:53.141Z,95463.91
2019-01-31T20:56:00.071Z,95454.72
2019-01-31T20:59:07.013Z,95455.79
2019-01-31T21:02:14.029Z,95469.67
2019-01-31T21:05:22.306Z,95464.14
2019-01-31T21:08:30.809Z,95461.70
2019-01-31T21:11:38.436Z,95464.59
2019-01-31T21:14:45.870Z,95462.88
2019-01-31T21:17:52.582Z,95466.06
2019-01-31T21:20:59.542Z,95464.73
2019-01-31T21:24:06.377Z,95462.22
2019-01-31T21:27:13.019Z,95467.66
2019-01-31T21:30:25.497Z,95471.95
2019-01-31T21:33:32.829Z,95471.78
2019-01-31T21:36:40.116Z,95459.84
2019-01-31T21:39:46.871Z,95451.11
2019-01-31T21:42:53.487Z,95442.75
2019-01-31T21:46:00.326Z,95424.95
2019-01-31T21:49:07.124Z,95416.92
2019-01-31T21:52:13.917Z,95419.14
2019-01-31T21:55:20.452Z,95428.55
2019-01-31T21:58:26.850Z,95425.98
2019-01-31T22:01:33.919Z,95426.72
2019-01-31T22:04:42.160Z,95422.48
2019-01-31T22:07:50.480Z,95423.69
2019-01-31T22:10:57.936Z,95406.97
2019-01-31T22:14:05.312Z,95407.02
2019-01-31T22:17:14.780Z,95404.58
2019-01-31T22:20:20.650Z,95402.95
2019-01-31T22:23:27.646Z,95405.66
2019-01-31T22:26:34.980Z,95406.73
2019-01-31T22:29:41.549Z,95413.22
2019-01-31T22:32:48.024Z,95410.89
2019-01-31T22:35:56.703Z,95403.63
2019-01-31T22:39:03.395Z,95401.17
2019-01-31T22:42:10.844Z,95395.86
2019-01-31T22:45:18.937Z,95387.83
2019-01-31T22:48:25.355Z,95380.41
2019-01-31T22:51:31.999Z,95380.92
2019-01-31T22:54:38.839Z,95385.62
2019-01-31T22:57:45.507Z,95379.55
2019-01-31T23:01:26.269Z,95384.42
2019-01-31T23:04:33.324Z,95373.01
2019-01-31T23:07:39.719Z,95365.67
2019-01-31T23:10:46.409Z,95364.39
2019-01-31T23:13:53.100Z,95359.89
2019-01-31T23:16:59.728Z,95364.34
2019-01-31T23:20:07.615Z,95362.42
2019-01-31T23:23:13.759Z,95357.84
2019-01-31T23:26:20.479Z,95354.52
2019-01-31T23:29:27.421Z,95355.69
2019-01-31T23:32:33.871Z,95347.83
2019-01-31T23:35:40.666Z,95341.10
2019-01-31T23:38:47.155Z,95337.43
2019-01-31T23:41:53.563Z,95336.55
2019-01-31T23:44:59.905Z,95330.05
2019-01-31T23:48:06.342Z,95329.55
2019-01-31T23:51:12.982Z,95330.94
2019-01-31T23:54:19.206Z,95329.72
2019-01-31T23:57:25.511Z,95324.69
